createdAt,value
2019-04-06T08:13:17.405Z,96.13
2019-04-06T08:18:21.707Z,95.51
2019-04-06T08:23:25.849Z,94.69
2019-04-06T08:28:30.080Z,94.63
2019-04-06T08:33:34.072Z,93.78
2019-04-06T08:38:38.347Z,91.79
2019-04-06T08:43:42.533Z,89.24
2019-04-06T08:48:46.533Z,88.36
2019-04-06T08:53:50.737Z,88.40
2019-04-06T08:58:57.186Z,87.59
2019-04-06T09:04:01.307Z,86.94
2019-04-06T09:09:06.712Z,84.77
2019-04-06T09:14:11.271Z,84.85
2019-04-06T09:19:15.313Z,85.17
2019-04-06T09:24:19.339Z,82.48
2019-04-06T09:29:24.596Z,82.52
2019-04-06T09:34:30.980Z,79.65
2019-04-06T09:39:35.187Z,80.90
2019-04-06T09:44:39.276Z,78.71
2019-04-06T09:49:43.586Z,76.09
2019-04-06T09:54:47.672Z,77.57
2019-04-06T09:59:51.817Z,79.89
2019-04-06T10:04:55.912Z,77.25
2019-04-06T10:10:02.699Z,72.49
2019-04-06T10:15:07.033Z,69.30
2019-04-06T10:20:11.192Z,70.27
2019-04-06T10:25:15.468Z,67.88
2019-04-06T10:30:19.906Z,72.03
2019-04-06T10:35:24.170Z,74.14
2019-04-06T10:40:28.233Z,75.46
2019-04-06T10:45:32.411Z,78.43
2019-04-06T10:50:36.819Z,78.31
2019-04-06T10:55:40.926Z,77.92
2019-04-06T11:00:45.085Z,77.78
2019-04-06T11:05:49.131Z,77.70
2019-04-06T11:10:53.192Z,76.26
2019-04-06T11:15:57.205Z,74.79
2019-04-06T11:21:01.378Z,75.35
2019-04-06T11:26:05.652Z,74.67
2019-04-06T11:31:12.696Z,70.77
2019-04-06T11:36:16.691Z,73.37
2019-04-06T11:41:20.831Z,76.22
2019-04-06T11:46:24.905Z,76.84
2019-04-06T11:51:28.966Z,76.83
2019-04-06T11:56:33.924Z,76.96
2019-04-06T12:01:38.022Z,79.73
2019-04-06T12:06:42.013Z,75.87
2019-04-06T12:11:46.141Z,76.75
2019-04-06T12:16:50.152Z,76.60
2019-04-06T12:21:54.152Z,78.56
2019-04-06T12:26:58.623Z,78.11
2019-04-06T12:32:02.791Z,78.64
2019-04-06T12:37:06.835Z,76.37
2019-04-06T12:42:10.852Z,78.94
2019-04-06T12:47:15.037Z,76.35
2019-04-06T12:52:19.270Z,76.82
2019-04-06T12:57:23.351Z,76.25
2019-04-06T13:02:27.332Z,74.71
2019-04-06T13:07:32.630Z,73.97
2019-04-06T13:12:36.712Z,73.36
2019-04-06T13:17:40.773Z,72.26
2019-04-06T13:22:44.966Z,72.47
2019-04-06T13:27:49.347Z,69.60
2019-04-06T13:32:53.705Z,68.07
2019-04-06T13:37:57.746Z,68.93
2019-04-06T13:43:01.751Z,69.79
2019-04-06T13:48:06.086Z,70.24
2019-04-06T13:53:11.752Z,68.08
2019-04-06T13:58:15.852Z,67.80
2019-04-06T14:03:19.852Z,67.75
2019-04-06T14:08:24.030Z,68.68
2019-04-06T14:13:28.111Z,64.30
2019-04-06T14:18:32.182Z,64.22
2019-04-06T14:23:36.507Z,65.03
